Time;durP1;ratioP1;P1;durP2;ratioP2;P2;SDS_P1;SDS_P2;PMS_P1;PMS_P2;Temp;Humidity;BMP_temperature;BMP_pressure;BME280_temperature;BME280_humidity;BME280_pressure;Samples;Min_cycle;Max_cycle;Signal;HPM_P1;HPM_P2
2022/07/28 00:00:07;;;;;;;6.70;6.40;;;;;;;-143.83;100.00;62900.06;5113324;28;20479;-62
2022/07/28 00:02:33;;;;;;;6.68;6.38;;;;;;;-143.83;100.00;62900.06;5112223;28;20084;-61
2022/07/28 00:04:58;;;;;;;6.55;6.25;;;;;;;-143.83;100.00;62900.06;5113719;28;20023;-62
2022/07/28 00:07:24;;;;;;;6.75;6.45;;;;;;;-143.83;100.00;62900.06;5112608;28;20031;-62
2022/07/28 00:09:49;;;;;;;6.72;6.43;;;;;;;-143.83;100.00;62900.06;5114284;27;20024;-62
2022/07/28 00:12:15;;;;;;;6.65;6.35;;;;;;;-143.83;100.00;62900.06;5113180;28;20027;-62
2022/07/28 00:14:41;;;;;;;6.60;6.30;;;;;;;-143.83;100.00;62900.06;5114057;28;20054;-62
2022/07/28 00:17:06;;;;;;;6.50;6.20;;;;;;;-143.83;100.00;62900.06;5102830;28;20028;-61
2022/07/28 00:19:32;;;;;;;6.85;6.55;;;;;;;-143.83;100.00;62900.06;5109967;28;20819;-61
2022/07/28 00:21:58;;;;;;;6.60;6.30;;;;;;;-143.83;100.00;62900.06;5113314;28;20019;-61
2022/07/28 00:24:24;;;;;;;6.80;6.50;;;;;;;-143.83;100.00;62900.06;5112176;28;20474;-61
2022/07/28 00:26:51;;;;;;;6.70;6.40;;;;;;;-143.83;100.00;62900.06;5112813;27;20491;-62
2022/07/28 00:29:17;;;;;;;6.68;6.38;;;;;;;-143.83;100.00;62900.06;5113203;28;20096;-62
2022/07/28 00:31:42;;;;;;;6.65;6.35;;;;;;;-143.83;100.00;62900.06;5113316;28;20107;-62
2022/07/28 00:34:08;;;;;;;6.50;6.20;;;;;;;-143.83;100.00;62900.06;5112753;27;20065;-62
2022/07/28 00:36:33;;;;;;;6.90;6.60;;;;;;;-143.83;100.00;62900.06;5113139;28;20024;-62
2022/07/28 00:38:59;;;;;;;6.45;6.15;;;;;;;-143.83;100.00;62900.06;5113088;28;20034;-62
2022/07/28 00:41:24;;;;;;;6.82;6.53;;;;;;;-143.83;100.00;62900.06;5111376;28;20454;-63
2022/07/28 00:43:51;;;;;;;6.70;6.40;;;;;;;-143.83;100.00;62900.06;5113716;27;20027;-62
2022/07/28 00:46:19;;;;;;;6.80;6.50;;;;;;;-143.83;100.00;62900.06;5111578;28;20386;-62
2022/07/28 00:48:50;;;;;;;6.60;6.30;;;;;;;-143.83;100.00;62900.06;5110878;28;20051;-62
2022/07/28 00:51:18;;;;;;;6.65;6.35;;;;;;;-143.83;100.00;62900.06;5101674;28;20023;-61
2022/07/28 00:53:45;;;;;;;6.70;6.40;;;;;;;-143.83;100.00;62900.06;5109626;28;20410;-62
2022/07/28 00:56:12;;;;;;;6.50;6.20;;;;;;;-143.83;100.00;62900.06;5112669;28;20023;-62
2022/07/28 00:58:38;;;;;;;6.50;6.20;;;;;;;-143.83;100.00;62900.06;5111765;28;20364;-63
2022/07/28 01:01:08;;;;;;;6.78;6.47;;;;;;;-143.83;100.00;62900.06;5113330;28;20114;-61
2022/07/28 01:03:38;;;;;;;6.70;6.40;;;;;;;-143.83;100.00;62900.06;5111676;28;20501;-62
2022/07/28 01:06:32;;;;;;;6.65;6.35;;;;;;;-143.83;100.00;62900.06;5112585;28;20023;-61
2022/07/28 01:08:57;;;;;;;6.50;6.20;;;;;;;-143.83;100.00;62900.06;5099530;28;20027;-62
2022/07/28 01:11:41;;;;;;;6.70;6.40;;;;;;;-143.83;100.00;62900.06;5112896;28;20032;-63
2022/07/28 01:14:23;;;;;;;6.55;6.25;;;;;;;-143.83;100.00;62900.06;5112459;28;20047;-62
2022/07/28 01:16:55;;;;;;;6.65;6.35;;;;;;;-143.83;100.00;62900.06;5111982;27;20507;-62
2022/07/28 01:19:29;;;;;;;6.90;6.60;;;;;;;-143.83;100.00;62900.06;5098839;28;20097;-62
2022/07/28 01:21:57;;;;;;;6.63;6.32;;;;;;;-143.83;100.00;62900.06;5104247;28;20024;-62
2022/07/28 01:24:32;;;;;;;6.47;6.18;;;;;;;-143.83;100.00;62900.06;5104579;28;20462;-63
2022/07/28 01:27:08;;;;;;;6.55;6.25;;;;;;;-143.83;100.00;62900.06;5112429;28;20115;-62
2022/07/28 01:30:03;;;;;;;6.90;6.60;;;;;;;-143.83;100.00;62900.06;5119581;27;20160;-62
2022/07/28 01:32:38;;;;;;;6.60;6.30;;;;;;;-143.83;100.00;62900.06;5109257;28;20039;-62
2022/07/28 01:35:22;;;;;;;6.50;6.20;;;;;;;-143.83;100.00;62900.06;5112625;28;20032;-62
2022/07/28 01:37:52;;;;;;;6.47;6.18;;;;;;;-143.83;100.00;62900.06;5111567;28;20130;-62
2022/07/28 01:40:21;;;;;;;6.57;6.28;;;;;;;-143.83;100.00;62900.06;5111006;28;20027;-62
2022/07/28 01:42:51;;;;;;;6.50;6.20;;;;;;;-143.83;100.00;62900.06;5111960;28;20056;-61
2022/07/28 01:45:18;;;;;;;6.40;6.10;;;;;;;-143.83;100.00;62900.06;5111778;28;20024;-62
2022/07/28 01:47:45;;;;;;;6.63;6.32;;;;;;;-143.83;100.00;62900.06;5109608;28;20028;-62
2022/07/28 01:50:13;;;;;;;6.57;6.28;;;;;;;-143.83;100.00;62900.06;5093695;28;20681;-62
2022/07/28 01:52:41;;;;;;;6.47;6.18;;;;;;;-143.83;100.00;62900.06;5105077;28;20063;-62
2022/07/28 01:55:11;;;;;;;6.90;6.60;;;;;;;-143.83;100.00;62900.06;5114877;28;20065;-62
2022/07/28 01:57:37;;;;;;;6.65;6.35;;;;;;;-143.83;100.00;62900.06;5116114;28;20019;-62
2022/07/28 02:00:09;;;;;;;6.50;6.20;;;;;;;-143.83;100.00;62900.06;5115082;28;20019;-62
2022/07/28 02:02:36;;;;;;;6.50;6.20;;;;;;;-143.83;100.00;62900.06;5116266;28;20020;-62
2022/07/28 02:05:04;;;;;;;6.63;6.32;;;;;;;-143.83;100.00;62900.06;5114842;28;20027;-62
2022/07/28 02:07:31;;;;;;;6.72;6.43;;;;;;;-143.83;100.00;62900.06;5109377;27;20031;-62
2022/07/28 02:09:59;;;;;;;6.75;6.45;;;;;;;-143.83;100.00;62900.06;5114817;28;20028;-62
2022/07/28 02:12:26;;;;;;;6.57;6.28;;;;;;;-143.83;100.00;62900.06;5116224;28;20066;-62
2022/07/28 02:14:53;;;;;;;6.60;6.30;;;;;;;-143.83;100.00;62900.06;5115441;28;20020;-62
2022/07/28 02:17:27;;;;;;;6.70;6.40;;;;;;;-143.83;100.00;62900.06;5115858;28;20077;-62
2022/07/28 02:19:54;;;;;;;6.50;6.20;;;;;;;-143.83;100.00;62900.06;5115653;28;20041;-62
2022/07/28 02:22:21;;;;;;;6.72;6.43;;;;;;;-143.83;100.00;62900.06;5115661;28;20028;-62
2022/07/28 02:24:47;;;;;;;6.53;6.22;;;;;;;-143.83;100.00;62900.06;5116800;27;20043;-62
2022/07/28 02:27:15;;;;;;;7.15;6.85;;;;;;;-143.83;100.00;62900.06;5116055;27;20032;-62
2022/07/28 02:29:46;;;;;;;6.70;6.40;;;;;;;-143.83;100.00;62900.06;5115093;28;20397;-62
2022/07/28 02:32:55;;;;;;;6.63;6.32;;;;;;;-143.83;100.00;62900.06;5115631;28;20024;-62
2022/07/28 02:35:36;;;;;;;6.57;6.28;;;;;;;-143.83;100.00;62900.06;5115344;28;20034;-62
2022/07/28 02:38:13;;;;;;;6.70;6.40;;;;;;;-143.83;100.00;62900.06;5115513;28;20027;-62
2022/07/28 02:40:42;;;;;;;6.72;6.43;;;;;;;-143.83;100.00;62900.06;5114164;28;20092;-62
2022/07/28 02:43:11;;;;;;;6.70;6.40;;;;;;;-143.83;100.00;62900.06;5121341;27;20044;-62
2022/07/28 02:45:44;;;;;;;6.53;6.22;;;;;;;-143.83;100.00;62900.06;5107509;28;20049;-62
2022/07/28 02:48:16;;;;;;;6.72;6.43;;;;;;;-143.83;100.00;62900.06;5115306;28;20019;-62
2022/07/28 02:50:44;;;;;;;6.63;6.32;;;;;;;-143.83;100.00;62900.06;5115419;28;20023;-62
2022/07/28 02:53:13;;;;;;;6.60;6.30;;;;;;;-143.83;100.00;62900.06;5114965;28;20491;-61
2022/07/28 02:55:39;;;;;;;6.88;6.57;;;;;;;-143.83;100.00;62900.06;5115015;28;20034;-62
2022/07/28 02:58:07;;;;;;;6.53;6.22;;;;;;;-143.83;100.00;62900.06;5113077;28;20035;-62
2022/07/28 03:00:34;;;;;;;6.60;6.30;;;;;;;-143.83;100.00;62900.06;5125323;27;20023;-62
2022/07/28 03:03:00;;;;;;;6.70;6.40;;;;;;;-143.83;100.00;62900.06;5108094;28;20499;-62
2022/07/28 03:05:27;;;;;;;6.40;6.10;;;;;;;-143.83;100.00;62900.06;5114438;28;20044;-62
2022/07/28 03:07:53;;;;;;;6.70;6.40;;;;;;;-143.83;100.00;62900.06;5114758;28;20031;-62
2022/07/28 03:10:26;;;;;;;6.55;6.25;;;;;;;-143.83;100.00;62900.06;5114681;28;20060;-63
2022/07/28 03:12:55;;;;;;;6.40;6.10;;;;;;;-143.83;100.00;62900.06;5114771;28;20031;-63
2022/07/28 03:15:21;;;;;;;6.43;6.13;;;;;;;-143.83;100.00;62900.06;5113234;27;20039;-63
2022/07/28 03:17:47;;;;;;;6.72;6.43;;;;;;;-143.83;100.00;62900.06;5114940;28;20030;-63
2022/07/28 03:20:12;;;;;;;6.70;6.40;;;;;;;-143.83;100.00;62900.06;5114928;28;20023;-63
2022/07/28 03:22:38;;;;;;;6.80;6.50;;;;;;;-143.83;100.00;62900.06;5118015;27;20388;-62
2022/07/28 03:25:21;;;;;;;6.80;6.50;;;;;;;-143.83;100.00;62900.06;5114859;28;20096;-62
2022/07/28 03:27:49;;;;;;;6.85;6.55;;;;;;;-143.83;100.00;62900.06;5114298;28;20019;-63
2022/07/28 03:30:23;;;;;;;6.90;6.60;;;;;;;-143.83;100.00;62900.06;5114387;28;20035;-63
2022/07/28 03:32:58;;;;;;;6.50;6.20;;;;;;;-143.83;100.00;62900.06;5109567;27;20104;-62
2022/07/28 03:35:24;;;;;;;6.75;6.45;;;;;;;-143.83;100.00;62900.06;5102488;28;20505;-62
2022/07/28 03:38:04;;;;;;;7.10;6.80;;;;;;;-143.83;100.00;62900.06;5114948;28;20133;-62
2022/07/28 03:40:31;;;;;;;7.00;6.70;;;;;;;-143.83;100.00;62900.06;5109949;28;20016;-63
2022/07/28 03:43:02;;;;;;;6.78;6.47;;;;;;;-143.83;100.00;62900.06;5114460;28;20130;-63
2022/07/28 03:45:29;;;;;;;7.03;6.72;;;;;;;-143.83;100.00;62900.06;5114021;28;20118;-61
2022/07/28 03:47:56;;;;;;;6.70;6.40;;;;;;;-143.83;100.00;62900.06;5114545;28;20047;-62
2022/07/28 03:50:28;;;;;;;6.80;6.50;;;;;;;-143.83;100.00;62900.06;5118738;27;20027;-62
2022/07/28 03:52:55;;;;;;;6.70;6.40;;;;;;;-143.83;100.00;62900.06;5114750;28;20024;-61
2022/07/28 03:55:20;;;;;;;6.80;6.50;;;;;;;-143.83;100.00;62900.06;5113052;28;20088;-62
2022/07/28 03:57:46;;;;;;;7.00;6.70;;;;;;;-143.83;100.00;62900.06;5112035;28;20028;-64
2022/07/28 04:00:15;;;;;;;6.85;6.55;;;;;;;-143.83;100.00;62900.06;5113612;28;20127;-62
2022/07/28 04:02:42;;;;;;;6.70;6.40;;;;;;;-143.83;100.00;62900.06;5111820;28;20443;-63
2022/07/28 04:05:10;;;;;;;6.82;6.53;;;;;;;-143.83;100.00;62900.06;5113473;28;20032;-62
2022/07/28 04:07:36;;;;;;;6.95;6.65;;;;;;;-143.83;100.00;62900.06;5111877;27;20038;-62
2022/07/28 04:10:01;;;;;;;6.75;6.45;;;;;;;-143.83;100.00;62900.06;5113973;28;20024;-62
2022/07/28 04:12:27;;;;;;;6.90;6.60;;;;;;;-143.83;100.00;62900.06;5113674;28;20490;-62
2022/07/28 04:14:52;;;;;;;6.80;6.50;;;;;;;-143.83;100.00;62900.06;5110842;28;20457;-63
2022/07/28 04:17:18;;;;;;;7.18;6.88;;;;;;;-143.83;100.00;62900.06;5108923;28;20027;-62
2022/07/28 04:19:43;;;;;;;6.90;6.60;;;;;;;-143.83;100.00;62900.06;5113475;28;20027;-62
2022/07/28 04:22:09;;;;;;;6.97;6.68;;;;;;;-143.83;100.00;62900.06;5116633;27;20028;-62
2022/07/28 04:24:34;;;;;;;7.00;6.70;;;;;;;-143.83;100.00;62900.06;5112823;28;20530;-62
2022/07/28 04:27:00;;;;;;;7.05;6.75;;;;;;;-143.83;100.00;62900.06;5113271;28;20027;-63
2022/07/28 04:29:25;;;;;;;6.97;6.68;;;;;;;-143.83;100.00;62900.06;5111799;28;20046;-62
2022/07/28 04:31:51;;;;;;;7.00;6.70;;;;;;;-143.83;100.00;62900.06;5112885;28;20023;-62
2022/07/28 04:34:16;;;;;;;7.20;6.90;;;;;;;-143.83;100.00;62900.06;5105020;28;20019;-62
2022/07/28 04:36:42;;;;;;;7.13;6.82;;;;;;;-143.83;100.00;62900.06;5107011;28;20072;-63
2022/07/28 04:39:10;;;;;;;7.30;7.00;;;;;;;-143.83;100.00;62900.06;5112934;28;20031;-63
2022/07/28 04:41:37;;;;;;;7.18;6.88;;;;;;;-143.83;100.00;62900.06;5112466;27;20042;-62
2022/07/28 04:44:02;;;;;;;7.30;7.00;;;;;;;-143.83;100.00;62900.06;5112824;28;20487;-62
2022/07/28 04:46:28;;;;;;;7.38;7.07;;;;;;;-143.83;100.00;62900.06;5112392;28;20039;-62
2022/07/28 04:48:53;;;;;;;7.03;6.72;;;;;;;-143.83;100.00;62900.06;5112575;28;20029;-63
2022/07/28 04:51:18;;;;;;;6.90;6.60;;;;;;;-143.83;100.00;62900.06;5111408;28;20035;-63
2022/07/28 04:53:46;;;;;;;6.70;6.40;;;;;;;-143.83;100.00;62900.06;5112675;28;20043;-62
2022/07/28 04:56:11;;;;;;;7.00;6.70;;;;;;;-143.83;100.00;62900.06;5112147;28;20028;-62
2022/07/28 04:58:37;;;;;;;6.90;6.60;;;;;;;-143.83;100.00;62900.06;5120175;27;20131;-63
2022/07/28 05:01:02;;;;;;;6.90;6.60;;;;;;;-143.83;100.00;62900.06;5106249;28;20117;-66
2022/07/28 05:03:28;;;;;;;7.00;6.70;;;;;;;-143.83;100.00;62900.06;5105969;28;20204;-62
2022/07/28 05:05:54;;;;;;;6.90;6.60;;;;;;;-143.83;100.00;62900.06;5112148;28;20019;-63
2022/07/28 05:08:21;;;;;;;7.00;6.70;;;;;;;-143.83;100.00;62900.06;5111850;28;20098;-63
2022/07/28 05:10:46;;;;;;;6.97;6.68;;;;;;;-143.83;100.00;62900.06;5107846;27;20032;-62
2022/07/28 05:13:12;;;;;;;7.15;6.85;;;;;;;-143.83;100.00;62900.06;5102653;28;20107;-63
2022/07/28 05:15:37;;;;;;;7.13;6.82;;;;;;;-143.83;100.00;62900.06;5110649;27;20028;-62
2022/07/28 05:18:03;;;;;;;6.90;6.60;;;;;;;-143.83;100.00;62900.06;5112208;28;20027;-63
2022/07/28 05:20:29;;;;;;;7.00;6.70;;;;;;;-143.83;100.00;62900.06;5111451;28;20028;-63
2022/07/28 05:22:56;;;;;;;7.00;6.70;;;;;;;-143.83;100.00;62900.06;5112168;28;20038;-63
2022/07/28 05:25:23;;;;;;;6.80;6.50;;;;;;;-143.83;100.00;62900.06;5105224;28;20103;-63
2022/07/28 05:27:51;;;;;;;6.90;6.60;;;;;;;-143.83;100.00;62900.06;5108590;28;20023;-65
2022/07/28 05:30:17;;;;;;;7.05;6.75;;;;;;;-143.83;100.00;62900.06;5101202;28;20026;-62
2022/07/28 05:32:47;;;;;;;7.20;6.90;;;;;;;-143.83;100.00;62900.06;5110333;28;20035;-63
2022/07/28 05:35:14;;;;;;;7.18;6.88;;;;;;;-143.83;100.00;62900.06;5109327;28;20066;-63
2022/07/28 05:37:40;;;;;;;7.13;6.82;;;;;;;-143.83;100.00;62900.06;5111896;28;20027;-63
2022/07/28 05:40:12;;;;;;;7.20;6.90;;;;;;;-143.83;100.00;62900.06;5111778;28;20023;-63
2022/07/28 05:42:39;;;;;;;7.20;6.90;;;;;;;-143.83;100.00;62900.06;5111680;28;20155;-63
2022/07/28 05:45:07;;;;;;;7.50;7.20;;;;;;;-143.83;100.00;62900.06;5111596;28;20028;-63
2022/07/28 05:47:51;;;;;;;7.55;7.25;;;;;;;-143.83;100.00;62900.06;5110456;28;20168;-63
2022/07/28 05:50:17;;;;;;;;;;;;;;;-143.83;100.00;62900.06;5112326;28;20027;-63
2022/07/28 05:52:44;;;;;;;7.10;6.80;;;;;;;-143.83;100.00;62900.06;5110452;28;19907;-62
2022/07/28 05:55:10;;;;;;;7.30;7.00;;;;;;;-143.83;100.00;62900.06;5109217;28;20068;-61
2022/07/28 05:57:37;;;;;;;7.20;6.90;;;;;;;-143.83;100.00;62900.06;5111673;28;20059;-63
2022/07/28 06:00:06;;;;;;;7.38;7.07;;;;;;;-143.83;100.00;62900.06;5108321;28;20032;-63
2022/07/28 06:02:31;;;;;;;7.15;6.85;;;;;;;-143.83;100.00;62900.06;5111842;28;20020;-62
2022/07/28 06:04:57;;;;;;;7.20;6.90;;;;;;;-143.83;100.00;62900.06;5108941;28;20109;-63
2022/07/28 06:07:22;;;;;;;7.25;6.95;;;;;;;-143.83;100.00;62900.06;5117791;28;20524;-64
2022/07/28 06:09:48;;;;;;;7.20;6.90;;;;;;;-143.83;100.00;62900.06;5112012;28;20393;-63
2022/07/28 06:12:14;;;;;;;7.20;6.90;;;;;;;-143.83;100.00;62900.06;5113440;28;20395;-64
2022/07/28 06:14:39;;;;;;;7.40;7.10;;;;;;;-143.83;100.00;62900.06;5110070;28;20104;-63
2022/07/28 06:17:05;;;;;;;7.35;7.05;;;;;;;-143.83;100.00;62900.06;5111677;28;20085;-63
2022/07/28 06:19:30;;;;;;;7.28;6.97;;;;;;;-143.83;100.00;62900.06;5111555;28;20064;-62
2022/07/28 06:21:56;;;;;;;7.32;7.03;;;;;;;-143.83;100.00;62900.06;5109990;28;20050;-63
2022/07/28 06:24:21;;;;;;;7.13;6.82;;;;;;;-143.83;100.00;62900.06;5112239;28;20024;-62
2022/07/28 06:26:47;;;;;;;7.20;6.90;;;;;;;-143.83;100.00;62900.06;5110526;28;20023;-62
2022/07/28 06:29:12;;;;;;;7.25;6.95;;;;;;;-143.83;100.00;62900.06;5103775;28;20030;-64
2022/07/28 06:31:38;;;;;;;7.30;7.00;;;;;;;-143.83;100.00;62900.06;5097501;28;20430;-64
2022/07/28 06:34:04;;;;;;;7.50;7.20;;;;;;;-143.83;100.00;62900.06;5106118;28;20024;-64
2022/07/28 06:36:30;;;;;;;7.20;6.90;;;;;;;-143.83;100.00;62900.06;5106239;28;20436;-63
2022/07/28 06:38:55;;;;;;;7.53;7.22;;;;;;;-143.83;100.00;62900.06;5102701;28;20034;-62
2022/07/28 06:41:21;;;;;;;7.40;7.10;;;;;;;-143.83;100.00;62900.06;5113086;28;20039;-64
2022/07/28 06:43:46;;;;;;;6.97;6.68;;;;;;;-143.83;100.00;62900.06;5109347;28;20436;-65
2022/07/28 06:46:17;;;;;;;6.70;6.40;;;;;;;-143.83;100.00;62900.06;5109658;28;20069;-66
2022/07/28 06:48:44;;;;;;;7.13;6.82;;;;;;;-143.83;100.00;62900.06;5105470;27;20526;-64
2022/07/28 06:51:10;;;;;;;7.28;6.97;;;;;;;-143.83;100.00;62900.06;5111436;28;20023;-64
2022/07/28 06:53:36;;;;;;;7.10;6.80;;;;;;;-143.83;100.00;62900.06;5110023;28;20035;-64
2022/07/28 06:56:03;;;;;;;7.20;6.90;;;;;;;-143.83;100.00;62900.06;5108800;28;20032;-63
2022/07/28 06:58:29;;;;;;;7.07;6.78;;;;;;;-143.83;100.00;62900.06;5111693;27;20038;-63
2022/07/28 07:00:55;;;;;;;7.10;6.80;;;;;;;-143.83;100.00;62900.06;5109177;28;20126;-63
2022/07/28 07:03:20;;;;;;;7.30;7.00;;;;;;;-143.83;100.00;62900.06;5109018;28;20023;-63
2022/07/28 07:05:46;;;;;;;7.15;6.85;;;;;;;-143.83;100.00;62900.06;5108255;28;20138;-63
2022/07/28 07:08:11;;;;;;;7.35;7.05;;;;;;;-143.83;100.00;62900.06;5120911;27;20027;-64
2022/07/28 07:10:37;;;;;;;7.45;7.15;;;;;;;-143.83;100.00;62900.06;5110019;28;20036;-63
2022/07/28 07:13:02;;;;;;;7.40;7.10;;;;;;;-143.83;100.00;62900.06;5104722;28;20070;-63
2022/07/28 07:15:28;;;;;;;7.10;6.80;;;;;;;-143.83;100.00;62900.06;5115104;27;20046;-63
2022/07/28 07:17:53;;;;;;;7.05;6.75;;;;;;;-143.83;100.00;62900.06;5108948;28;20043;-63
2022/07/28 07:20:19;;;;;;;6.95;6.65;;;;;;;-143.83;100.00;62900.06;5111225;28;20016;-64
2022/07/28 07:22:46;;;;;;;7.32;7.03;;;;;;;-143.83;100.00;62900.06;5110903;28;20421;-63
2022/07/28 07:25:14;;;;;;;7.10;6.80;;;;;;;-143.83;100.00;62900.06;5107668;28;20073;-63
2022/07/28 07:27:40;;;;;;;7.10;6.80;;;;;;;-143.83;100.00;62900.06;5110863;28;20031;-63
2022/07/28 07:30:07;;;;;;;7.25;6.95;;;;;;;-143.83;100.00;62900.06;5107559;27;20075;-63
2022/07/28 07:32:33;;;;;;;7.00;6.70;;;;;;;-143.83;100.00;62900.06;5111021;27;20556;-63
2022/07/28 07:34:58;;;;;;;7.00;6.70;;;;;;;-143.83;100.00;62900.06;5105686;28;20036;-64
2022/07/28 07:37:24;;;;;;;7.28;6.97;;;;;;;-143.83;100.00;62900.06;5104262;28;20023;-63
2022/07/28 07:39:50;;;;;;;7.10;6.80;;;;;;;-143.83;100.00;62900.06;5110562;28;20027;-64
2022/07/28 07:42:15;;;;;;;7.32;7.03;;;;;;;-143.83;100.00;62900.06;5109728;28;20074;-65
2022/07/28 07:44:41;;;;;;;7.30;7.00;;;;;;;-143.83;100.00;62900.06;5108927;28;20531;-64
2022/07/28 07:47:10;;;;;;;7.40;7.10;;;;;;;-143.83;100.00;62900.06;5109243;27;20035;-63
2022/07/28 07:49:39;;;;;;;6.95;6.65;;;;;;;-143.83;100.00;62900.06;5104365;28;20020;-64
2022/07/28 07:52:05;;;;;;;7.40;7.10;;;;;;;-143.83;100.00;62900.06;5108892;28;20038;-64
2022/07/28 07:54:30;;;;;;;7.35;7.05;;;;;;;-143.83;100.00;62900.06;5109871;28;20023;-63
2022/07/28 07:56:56;;;;;;;7.15;6.85;;;;;;;-143.83;100.00;62900.06;5108324;28;20027;-63
2022/07/28 07:59:21;;;;;;;7.50;7.20;;;;;;;-143.83;100.00;62900.06;5108466;28;20070;-63
2022/07/28 08:01:52;;;;;;;7.13;6.82;;;;;;;-143.83;100.00;62900.06;5109620;28;20115;-64
2022/07/28 08:04:18;;;;;;;7.20;6.90;;;;;;;-143.83;100.00;62900.06;5104463;27;20105;-63
2022/07/28 08:06:44;;;;;;;7.30;7.00;;;;;;;-143.83;100.00;62900.06;5109630;28;20022;-64
2022/07/28 08:09:09;;;;;;;7.40;7.10;;;;;;;-143.83;100.00;62900.06;5108868;28;20342;-65
2022/07/28 08:11:34;;;;;;;7.10;6.80;;;;;;;-143.83;100.00;62900.06;5109744;28;20047;-64
2022/07/28 08:14:00;;;;;;;7.10;6.80;;;;;;;-143.83;100.00;62900.06;5108984;28;20023;-65
2022/07/28 08:16:25;;;;;;;7.00;6.70;;;;;;;-143.83;100.00;62900.06;5109765;28;20382;-64
2022/07/28 08:18:52;;;;;;;7.10;6.80;;;;;;;-143.83;100.00;62900.06;5109921;28;20114;-64
2022/07/28 08:21:18;;;;;;;7.00;6.70;;;;;;;-143.83;100.00;62900.06;5103060;27;20495;-64
2022/07/28 08:23:43;;;;;;;7.00;6.70;;;;;;;-143.83;100.00;62900.06;5105838;28;20050;-64
2022/07/28 08:26:09;;;;;;;6.93;6.63;;;;;;;-143.83;100.00;62900.06;5108587;28;20551;-64
2022/07/28 08:28:34;;;;;;;7.20;6.90;;;;;;;-143.83;100.00;62900.06;5107975;28;20498;-65
2022/07/28 08:31:00;;;;;;;7.20;6.90;;;;;;;-143.83;100.00;62900.06;5107990;28;20100;-64
2022/07/28 08:33:25;;;;;;;7.13;6.82;;;;;;;-143.83;100.00;62900.06;5109187;28;20028;-64
2022/07/28 08:35:51;;;;;;;7.20;6.90;;;;;;;-143.83;100.00;62900.06;5107537;28;20100;-64
2022/07/28 08:38:16;;;;;;;7.00;6.70;;;;;;;-143.83;100.00;62900.06;5108669;28;20030;-64
2022/07/28 08:40:47;;;;;;;7.40;7.10;;;;;;;-143.83;100.00;62900.06;5105318;28;20030;-64
2022/07/28 08:43:21;;;;;;;7.22;6.93;;;;;;;-143.83;100.00;62900.06;5107926;28;20070;-64
2022/07/28 08:45:48;;;;;;;7.15;6.85;;;;;;;-143.83;100.00;62900.06;5107780;28;20103;-65
2022/07/28 08:48:15;;;;;;;7.22;6.93;;;;;;;-143.83;100.00;62900.06;5118814;27;20520;-64
2022/07/28 08:50:42;;;;;;;7.03;6.72;;;;;;;-143.83;100.00;62900.06;5112388;27;20034;-64
2022/07/28 08:53:09;;;;;;;7.30;7.00;;;;;;;-143.83;100.00;62900.06;5109484;27;20027;-64
2022/07/28 08:55:36;;;;;;;7.30;7.00;;;;;;;-143.83;100.00;62900.06;5112434;27;20684;-65
2022/07/28 08:58:02;;;;;;;7.30;7.00;;;;;;;-143.83;100.00;62900.06;5104451;28;20020;-65
2022/07/28 09:00:28;;;;;;;7.03;6.72;;;;;;;-143.83;100.00;62900.06;5107453;27;20042;-66
2022/07/28 09:02:54;;;;;;;7.05;6.75;;;;;;;-143.83;100.00;62900.06;5104599;28;20031;-64
2022/07/28 09:05:21;;;;;;;7.20;6.90;;;;;;;-143.83;100.00;62900.06;5106778;28;20016;-65
2022/07/28 09:07:49;;;;;;;7.30;7.00;;;;;;;-143.83;100.00;62900.06;5099338;28;20054;-64
2022/07/28 09:10:16;;;;;;;7.00;6.70;;;;;;;-143.83;100.00;62900.06;5107167;28;20517;-64
2022/07/28 09:12:41;;;;;;;7.20;6.90;;;;;;;-143.83;100.00;62900.06;5107771;27;20031;-64
2022/07/28 09:15:09;;;;;;;7.13;6.82;;;;;;;-143.83;100.00;62900.06;5107215;28;20019;-64
2022/07/28 09:17:35;;;;;;;7.10;6.80;;;;;;;-143.83;100.00;62900.06;5102344;27;20106;-64
2022/07/28 09:20:02;;;;;;;6.97;6.68;;;;;;;-143.83;100.00;62900.06;5108721;28;20441;-65
2022/07/28 09:22:27;;;;;;;6.90;6.60;;;;;;;-143.83;100.00;62900.06;5106626;28;20580;-64
2022/07/28 09:24:53;;;;;;;7.10;6.80;;;;;;;-143.83;100.00;62900.06;5108581;28;20049;-66
2022/07/28 09:27:19;;;;;;;7.10;6.80;;;;;;;-143.83;100.00;62900.06;5108334;28;20055;-64
2022/07/28 09:29:47;;;;;;;7.00;6.70;;;;;;;-143.83;100.00;62900.06;5109032;27;20425;-64
2022/07/28 09:32:14;;;;;;;6.90;6.60;;;;;;;-143.83;100.00;62900.06;5107020;28;20526;-64
2022/07/28 09:34:47;;;;;;;6.93;6.63;;;;;;;-143.83;100.00;62900.06;5107819;28;20047;-65
2022/07/28 09:37:17;;;;;;;6.80;6.50;;;;;;;-143.83;100.00;62900.06;5105002;28;20038;-64
2022/07/28 09:39:43;;;;;;;7.10;6.80;;;;;;;-143.83;100.00;62900.06;5108139;28;20106;-64
2022/07/28 09:42:09;;;;;;;7.05;6.75;;;;;;;-143.83;100.00;62900.06;5106921;28;20067;-65
2022/07/28 09:44:34;;;;;;;7.32;7.03;;;;;;;-143.83;100.00;62900.06;5095211;28;20103;-64
2022/07/28 09:47:19;;;;;;;7.20;6.90;;;;;;;-143.83;100.00;62900.06;5112768;28;20035;-65
2022/07/28 09:49:44;;;;;;;7.00;6.70;;;;;;;-143.83;100.00;62900.06;5107684;28;20102;-62
2022/07/28 09:52:10;;;;;;;7.32;7.03;;;;;;;-143.83;100.00;62900.06;5107998;28;20111;-62
2022/07/28 09:54:35;;;;;;;6.90;6.60;;;;;;;-143.83;100.00;62900.06;5109582;28;20043;-62
2022/07/28 09:57:01;;;;;;;7.00;6.70;;;;;;;-143.83;100.00;62900.06;5116767;27;20398;-62
2022/07/28 09:59:39;;;;;;;7.00;6.70;;;;;;;-143.83;100.00;62900.06;5109604;28;20045;-62
2022/07/28 10:02:05;;;;;;;6.80;6.50;;;;;;;-143.83;100.00;62900.06;5110332;28;20112;-62
2022/07/28 10:04:33;;;;;;;6.75;6.45;;;;;;;-143.83;100.00;62900.06;5104455;28;20489;-62
2022/07/28 10:07:10;;;;;;;7.00;6.70;;;;;;;-143.83;100.00;62900.06;5110008;28;20106;-62
2022/07/28 10:09:37;;;;;;;7.07;6.78;;;;;;;-143.83;100.00;62900.06;5101163;28;20038;-65
2022/07/28 10:12:23;;;;;;;7.00;6.70;;;;;;;-143.83;100.00;62900.06;5107904;28;20043;-64
2022/07/28 10:14:52;;;;;;;7.10;6.80;;;;;;;-143.83;100.00;62900.06;5101548;28;20035;-65
2022/07/28 10:17:32;;;;;;;6.88;6.57;;;;;;;-143.83;100.00;62900.06;5108867;28;20024;-65
2022/07/28 10:19:59;;;;;;;6.95;6.65;;;;;;;-143.83;100.00;62900.06;5110753;28;20123;-66
2022/07/28 10:22:28;;;;;;;7.10;6.80;;;;;;;-143.83;100.00;62900.06;5107257;27;20028;-65
2022/07/28 10:24:55;;;;;;;7.15;6.85;;;;;;;-143.83;100.00;62900.06;5100573;28;20486;-64
2022/07/28 10:27:24;;;;;;;6.90;6.60;;;;;;;-143.83;100.00;62900.06;5110700;28;20035;-65
2022/07/28 10:29:57;;;;;;;7.13;6.82;;;;;;;-143.83;100.00;62900.06;5110555;28;20039;-64
2022/07/28 10:32:23;;;;;;;7.00;6.70;;;;;;;-143.83;100.00;62900.06;5103826;28;20031;-64
2022/07/28 10:34:53;;;;;;;7.10;6.80;;;;;;;-143.83;100.00;62900.06;5111468;28;20558;-64
2022/07/28 10:37:22;;;;;;;7.03;6.72;;;;;;;-143.83;100.00;62900.06;5112521;27;20050;-63
2022/07/28 10:40:00;;;;;;;7.10;6.80;;;;;;;-143.83;100.00;62900.06;5115117;27;20031;-64
2022/07/28 10:42:26;;;;;;;6.95;6.65;;;;;;;-143.83;100.00;62900.06;5103088;28;20403;-64
2022/07/28 10:44:54;;;;;;;7.10;6.80;;;;;;;-143.83;100.00;62900.06;5096664;28;20024;-65
2022/07/28 10:47:20;;;;;;;7.10;6.80;;;;;;;-143.83;100.00;62900.06;5111063;28;20023;-64
2022/07/28 10:49:49;;;;;;;7.25;6.95;;;;;;;-143.83;100.00;62900.06;5111041;28;20107;-64
2022/07/28 10:52:17;;;;;;;7.35;7.05;;;;;;;-143.83;100.00;62900.06;5107026;27;20087;-64
2022/07/28 10:55:06;;;;;;;7.28;6.97;;;;;;;-143.83;100.00;62900.06;5108381;27;20593;-64
2022/07/28 10:57:33;;;;;;;7.40;7.10;;;;;;;-143.83;100.00;62900.06;5074918;28;20479;-64
2022/07/28 11:00:05;;;;;;;7.18;6.88;;;;;;;-143.83;100.00;62900.06;5109245;28;20027;-65
2022/07/28 11:02:51;;;;;;;7.13;6.82;;;;;;;-143.83;100.00;62900.06;5110374;28;20020;-63
2022/07/28 11:05:30;;;;;;;6.97;6.68;;;;;;;-143.83;100.00;62900.06;5104288;28;20096;-63
2022/07/28 11:07:59;;;;;;;7.18;6.88;;;;;;;-143.83;100.00;62900.06;5110298;28;20023;-63
2022/07/28 11:10:26;;;;;;;7.00;6.70;;;;;;;-143.83;100.00;62900.06;5110054;27;20104;-63
2022/07/28 11:12:55;;;;;;;6.90;6.60;;;;;;;-143.83;100.00;62900.06;5111197;27;20032;-63